sensor_id;sensor_type;location;lat;lon;timestamp;pressure;altitude;pressure_sealevel;temperature;humidity
40838;BME280;29632;49.168;9.848;2023-04-08T00:00:22;96992.16;;;13.68;40.88
40838;BME280;29632;49.168;9.848;2023-04-08T00:02:48;96994.44;;;13.71;40.77
40838;BME280;29632;49.168;9.848;2023-04-08T00:05:13;96995.94;;;13.74;40.38
40838;BME280;29632;49.168;9.848;2023-04-08T00:07:39;96989.56;;;13.76;40.44
40838;BME280;29632;49.168;9.848;2023-04-08T00:10:05;96992.00;;;13.78;40.72
40838;BME280;29632;49.168;9.848;2023-04-08T00:12:31;96992.81;;;13.78;40.60
40838;BME280;29632;49.168;9.848;2023-04-08T00:14:57;96995.44;;;13.78;40.53
40838;BME280;29632;49.168;9.848;2023-04-08T00:17:23;96992.81;;;13.78;40.89
40838;BME280;29632;49.168;9.848;2023-04-08T00:19:48;96994.16;;;13.83;40.49
40838;BME280;29632;49.168;9.848;2023-04-08T00:22:14;96989.91;;;13.82;40.71
40838;BME280;29632;49.168;9.848;2023-04-08T00:24:40;97002.16;;;13.81;40.57
40838;BME280;29632;49.168;9.848;2023-04-08T00:27:05;96997.75;;;13.82;40.76
40838;BME280;29632;49.168;9.848;2023-04-08T00:29:31;96993.66;;;13.79;40.37
40838;BME280;29632;49.168;9.848;2023-04-08T00:31:56;96993.50;;;13.81;40.68
40838;BME280;29632;49.168;9.848;2023-04-08T00:34:22;96988.94;;;13.83;40.90
40838;BME280;29632;49.168;9.848;2023-04-08T00:36:48;96991.53;;;13.83;40.86
40838;BME280;29632;49.168;9.848;2023-04-08T00:39:14;96994.00;;;13.84;40.52
40838;BME280;29632;49.168;9.848;2023-04-08T00:41:40;96995.97;;;13.82;40.88
40838;BME280;29632;49.168;9.848;2023-04-08T00:44:05;96992.66;;;13.80;40.46
40838;BME280;29632;49.168;9.848;2023-04-08T00:46:35;96991.19;;;13.77;40.99
40838;BME280;29632;49.168;9.848;2023-04-08T00:49:01;96991.50;;;13.74;40.63
40838;BME280;29632;49.168;9.848;2023-04-08T00:51:28;97000.50;;;13.72;40.95
40838;BME280;29632;49.168;9.848;2023-04-08T00:53:54;96998.06;;;13.70;40.88
40838;BME280;29632;49.168;9.848;2023-04-08T00:56:20;97001.47;;;13.71;41.19
40838;BME280;29632;49.168;9.848;2023-04-08T00:58:46;96996.25;;;13.71;40.88
40838;BME280;29632;49.168;9.848;2023-04-08T01:07:12;96990.03;;;13.72;41.07
40838;BME280;29632;49.168;9.848;2023-04-08T01:09:37;96991.66;;;13.73;41.02
40838;BME280;29632;49.168;9.848;2023-04-08T01:12:05;96984.97;;;13.70;41.38
40838;BME280;29632;49.168;9.848;2023-04-08T01:14:34;96991.31;;;13.68;41.49
40838;BME280;29632;49.168;9.848;2023-04-08T01:17:03;96985.59;;;13.64;41.47
40838;BME280;29632;49.168;9.848;2023-04-08T01:19:33;96983.13;;;13.63;41.51
40838;BME280;29632;49.168;9.848;2023-04-08T01:22:02;96984.78;;;13.64;41.35
40838;BME280;29632;49.168;9.848;2023-04-08T01:24:32;96993.94;;;13.68;41.57
40838;BME280;29632;49.168;9.848;2023-04-08T01:27:00;96992.31;;;13.67;41.33
40838;BME280;29632;49.168;9.848;2023-04-08T01:29:26;96994.78;;;13.68;41.48
40838;BME280;29632;49.168;9.848;2023-04-08T01:31:52;96991.31;;;13.68;41.56
40838;BME280;29632;49.168;9.848;2023-04-08T01:34:19;96989.53;;;13.68;41.73
40838;BME280;29632;49.168;9.848;2023-04-08T01:36:45;96989.53;;;13.68;41.33
40838;BME280;29632;49.168;9.848;2023-04-08T01:39:11;96989.53;;;13.68;41.70
40838;BME280;29632;49.168;9.848;2023-04-08T01:41:38;96990.34;;;13.69;41.58
40838;BME280;29632;49.168;9.848;2023-04-08T01:44:04;96988.84;;;13.66;41.54
40838;BME280;29632;49.168;9.848;2023-04-08T01:46:30;96990.00;;;13.64;41.80
40838;BME280;29632;49.168;9.848;2023-04-08T01:48:56;96990.00;;;13.64;41.75
40838;BME280;29632;49.168;9.848;2023-04-08T01:51:23;96984.78;;;13.64;41.50
40838;BME280;29632;49.168;9.848;2023-04-08T01:53:49;96982.16;;;13.64;41.40
40838;BME280;29632;49.168;9.848;2023-04-08T01:56:15;96985.75;;;13.63;41.62
40838;BME280;29632;49.168;9.848;2023-04-08T01:58:42;96993.94;;;13.59;41.53
40838;BME280;29632;49.168;9.848;2023-04-08T02:01:12;96986.06;;;13.59;41.64
40838;BME280;29632;49.168;9.848;2023-04-08T02:03:41;96989.66;;;13.58;41.83
40838;BME280;29632;49.168;9.848;2023-04-08T02:06:07;96983.63;;;13.58;41.89
40838;BME280;29632;49.168;9.848;2023-04-08T02:08:33;96984.56;;;13.57;41.88
40838;BME280;29632;49.168;9.848;2023-04-08T02:11:01;96989.16;;;13.55;41.60
40838;BME280;29632;49.168;9.848;2023-04-08T02:13:28;96993.06;;;13.51;41.93
40838;BME280;29632;49.168;9.848;2023-04-08T02:16:24;96986.34;;;13.48;41.82
40838;BME280;29632;49.168;9.848;2023-04-08T02:19:05;96992.88;;;13.44;41.84
40838;BME280;29632;49.168;9.848;2023-04-08T02:21:35;96992.22;;;13.42;41.87
40838;BME280;29632;49.168;9.848;2023-04-08T02:24:04;96994.84;;;13.42;41.85
40838;BME280;29632;49.168;9.848;2023-04-08T02:26:33;96993.84;;;13.43;42.23
40838;BME280;29632;49.168;9.848;2023-04-08T02:29:01;96991.72;;;13.47;42.01
40838;BME280;29632;49.168;9.848;2023-04-08T02:31:28;96996.81;;;13.48;42.20
40838;BME280;29632;49.168;9.848;2023-04-08T02:33:54;96997.31;;;13.52;41.90
40838;BME280;29632;49.168;9.848;2023-04-08T02:36:20;96997.97;;;13.54;41.72
40838;BME280;29632;49.168;9.848;2023-04-08T02:38:47;97002.25;;;13.55;41.86
40838;BME280;29632;49.168;9.848;2023-04-08T02:41:14;97006.66;;;13.54;42.17
40838;BME280;29632;49.168;9.848;2023-04-08T02:43:41;97003.34;;;13.52;42.21
40838;BME280;29632;49.168;9.848;2023-04-08T02:46:07;97007.78;;;13.52;41.88
40838;BME280;29632;49.168;9.848;2023-04-08T02:48:33;97004.34;;;13.51;41.93
40838;BME280;29632;49.168;9.848;2023-04-08T02:50:59;97001.22;;;13.48;42.07
40838;BME280;29632;49.168;9.848;2023-04-08T02:53:25;96999.56;;;13.47;42.07
40838;BME280;29632;49.168;9.848;2023-04-08T02:55:51;97000.72;;;13.44;41.80
40838;BME280;29632;49.168;9.848;2023-04-08T02:58:16;97008.22;;;13.39;42.21
40838;BME280;29632;49.168;9.848;2023-04-08T03:00:42;96999.34;;;13.32;42.23
40838;BME280;29632;49.168;9.848;2023-04-08T03:03:08;97003.34;;;13.26;42.59
40838;BME280;29632;49.168;9.848;2023-04-08T03:05:33;97005.66;;;13.21;42.40
40838;BME280;29632;49.168;9.848;2023-04-08T03:07:59;96997.13;;;13.19;42.55
40838;BME280;29632;49.168;9.848;2023-04-08T03:10:25;97001.97;;;13.14;42.43
40838;BME280;29632;49.168;9.848;2023-04-08T03:12:51;97001.63;;;13.09;42.46
40838;BME280;29632;49.168;9.848;2023-04-08T03:15:16;97002.75;;;13.06;42.64
40838;BME280;29632;49.168;9.848;2023-04-08T03:17:42;97006.03;;;13.08;42.86
40838;BME280;29632;49.168;9.848;2023-04-08T03:20:08;97008.34;;;13.11;42.72
40838;BME280;29632;49.168;9.848;2023-04-08T03:22:35;97011.47;;;13.15;42.39
40838;BME280;29632;49.168;9.848;2023-04-08T03:25:01;97008.41;;;13.19;42.36
40838;BME280;29632;49.168;9.848;2023-04-08T03:27:26;97006.31;;;13.23;42.61
40838;BME280;29632;49.168;9.848;2023-04-08T03:29:52;97010.41;;;13.26;42.24
40838;BME280;29632;49.168;9.848;2023-04-08T03:32:18;97009.59;;;13.25;42.45
40838;BME280;29632;49.168;9.848;2023-04-08T03:34:44;97011.91;;;13.28;42.28
40838;BME280;29632;49.168;9.848;2023-04-08T03:37:10;97016.13;;;13.29;42.61
40838;BME280;29632;49.168;9.848;2023-04-08T03:39:35;97013.53;;;13.29;42.19
40838;BME280;29632;49.168;9.848;2023-04-08T03:42:01;97013.53;;;13.29;42.48
40838;BME280;29632;49.168;9.848;2023-04-08T03:44:27;97015.47;;;13.27;42.15
40838;BME280;29632;49.168;9.848;2023-04-08T03:46:53;97015.78;;;13.24;42.57
40838;BME280;29632;49.168;9.848;2023-04-08T03:49:19;97012.81;;;13.19;42.33
40838;BME280;29632;49.168;9.848;2023-04-08T03:51:45;97015.75;;;13.16;42.41
40838;BME280;29632;49.168;9.848;2023-04-08T03:54:10;97017.00;;;13.12;42.56
40838;BME280;29632;49.168;9.848;2023-04-08T03:56:36;97018.97;;;13.10;42.68
40838;BME280;29632;49.168;9.848;2023-04-08T03:59:02;97018.81;;;13.11;42.82
40838;BME280;29632;49.168;9.848;2023-04-08T04:01:27;97016.19;;;13.11;42.76
40838;BME280;29632;49.168;9.848;2023-04-08T04:03:55;97017.69;;;13.14;42.77
40838;BME280;29632;49.168;9.848;2023-04-08T04:06:20;97019.31;;;13.15;42.53
40838;BME280;29632;49.168;9.848;2023-04-08T04:08:46;97020.28;;;13.14;42.70
40838;BME280;29632;49.168;9.848;2023-04-08T04:11:12;97023.09;;;13.12;42.81
40838;BME280;29632;49.168;9.848;2023-04-08T04:13:37;97028.97;;;13.14;42.52
40838;BME280;29632;49.168;9.848;2023-04-08T04:16:03;97023.59;;;13.16;42.80
40838;BME280;29632;49.168;9.848;2023-04-08T04:18:29;97023.41;;;13.17;42.63
40838;BME280;29632;49.168;9.848;2023-04-08T04:20:55;97017.53;;;13.15;42.72
40838;BME280;29632;49.168;9.848;2023-04-08T04:23:20;97020.47;;;13.12;42.57
40838;BME280;29632;49.168;9.848;2023-04-08T04:25:48;97024.84;;;13.12;42.85
40838;BME280;29632;49.168;9.848;2023-04-08T04:28:14;97027.63;;;13.10;42.82
40838;BME280;29632;49.168;9.848;2023-04-08T04:30:40;97024.03;;;13.11;42.76
40838;BME280;29632;49.168;9.848;2023-04-08T04:33:06;97031.09;;;13.11;42.94
40838;BME280;29632;49.168;9.848;2023-04-08T04:35:32;97027.63;;;13.10;42.47
40838;BME280;29632;49.168;9.848;2023-04-08T04:37:58;97032.03;;;13.10;42.82
40838;BME280;29632;49.168;9.848;2023-04-08T04:40:23;97029.72;;;13.07;42.74
40838;BME280;29632;49.168;9.848;2023-04-08T04:42:49;97034.44;;;13.03;42.81
40838;BME280;29632;49.168;9.848;2023-04-08T04:45:15;97032.47;;;12.97;43.04
40838;BME280;29632;49.168;9.848;2023-04-08T04:47:41;97038.13;;;12.92;42.90
40838;BME280;29632;49.168;9.848;2023-04-08T04:50:07;97039.41;;;12.88;42.90
40838;BME280;29632;49.168;9.848;2023-04-08T04:52:34;97035.28;;;12.85;43.00
40838;BME280;29632;49.168;9.848;2023-04-08T04:55:00;97042.31;;;12.85;42.83
40838;BME280;29632;49.168;9.848;2023-04-08T04:57:26;97041.66;;;12.83;42.99
40838;BME280;29632;49.168;9.848;2023-04-08T04:59:51;97046.41;;;12.88;43.01
40838;BME280;29632;49.168;9.848;2023-04-08T05:02:17;97043.34;;;12.92;42.86
40838;BME280;29632;49.168;9.848;2023-04-08T05:04:42;97044.69;;;12.96;42.65
40838;BME280;29632;49.168;9.848;2023-04-08T05:07:08;97054.84;;;12.99;42.93
40838;BME280;29632;49.168;9.848;2023-04-08T05:09:34;97048.50;;;13.02;43.10
40838;BME280;29632;49.168;9.848;2023-04-08T05:11:59;97051.63;;;13.06;42.60
40838;BME280;29632;49.168;9.848;2023-04-08T05:14:28;97050.34;;;13.10;42.81
40838;BME280;29632;49.168;9.848;2023-04-08T05:16:53;97058.03;;;13.11;42.83
40838;BME280;29632;49.168;9.848;2023-04-08T05:19:19;97062.31;;;13.12;42.44
40838;BME280;29632;49.168;9.848;2023-04-08T05:21:45;97069.31;;;13.12;42.35
40838;BME280;29632;49.168;9.848;2023-04-08T05:24:10;97067.53;;;13.12;42.68
40838;BME280;29632;49.168;9.848;2023-04-08T05:26:36;97070.16;;;13.12;42.60
40838;BME280;29632;49.168;9.848;2023-04-08T05:29:02;97077.00;;;13.13;42.89
40838;BME280;29632;49.168;9.848;2023-04-08T05:31:27;97074.25;;;13.15;42.45
40838;BME280;29632;49.168;9.848;2023-04-08T05:33:53;97073.28;;;13.16;42.72
40838;BME280;29632;49.168;9.848;2023-04-08T05:36:19;97078.34;;;13.17;42.51
40838;BME280;29632;49.168;9.848;2023-04-08T05:38:44;97080.00;;;13.18;42.58
40838;BME280;29632;49.168;9.848;2023-04-08T05:41:10;97073.66;;;13.21;42.39
40838;BME280;29632;49.168;9.848;2023-04-08T05:43:36;97079.53;;;13.23;42.81
40838;BME280;29632;49.168;9.848;2023-04-08T05:46:08;97081.81;;;13.26;42.31
40838;BME280;29632;49.168;9.848;2023-04-08T05:48:35;97087.06;;;13.26;42.29
40838;BME280;29632;49.168;9.848;2023-04-08T05:51:01;97084.28;;;13.28;42.57
40838;BME280;29632;49.168;9.848;2023-04-08T05:53:26;97086.25;;;13.26;42.78
40838;BME280;29632;49.168;9.848;2023-04-08T05:55:52;97084.63;;;13.25;42.38
40838;BME280;29632;49.168;9.848;2023-04-08T05:58:18;97093.56;;;13.22;42.34
40838;BME280;29632;49.168;9.848;2023-04-08T06:00:43;97091.13;;;13.20;42.62
40838;BME280;29632;49.168;9.848;2023-04-08T06:03:09;97095.53;;;13.20;42.87
40838;BME280;29632;49.168;9.848;2023-04-08T06:05:35;97089.63;;;13.18;42.55
40838;BME280;29632;49.168;9.848;2023-04-08T06:08:00;97094.88;;;13.18;42.66
40838;BME280;29632;49.168;9.848;2023-04-08T06:10:26;97105.31;;;13.18;42.92
40838;BME280;29632;49.168;9.848;2023-04-08T06:12:52;97100.25;;;13.16;42.79
40838;BME280;29632;49.168;9.848;2023-04-08T06:15:17;97105.31;;;13.18;43.00
40838;BME280;29632;49.168;9.848;2023-04-08T06:17:43;97115.50;;;13.21;42.94
40838;BME280;29632;49.168;9.848;2023-04-08T06:20:09;97116.16;;;13.23;42.96
40838;BME280;29632;49.168;9.848;2023-04-08T06:22:35;97108.31;;;13.23;42.68
40838;BME280;29632;49.168;9.848;2023-04-08T06:25:01;97111.59;;;13.25;42.64
40838;BME280;29632;49.168;9.848;2023-04-08T06:27:27;97114.34;;;13.23;42.77
40838;BME280;29632;49.168;9.848;2023-04-08T06:29:52;97116.31;;;13.21;42.66
40838;BME280;29632;49.168;9.848;2023-04-08T06:32:20;97114.78;;;13.19;42.72
40838;BME280;29632;49.168;9.848;2023-04-08T06:34:47;97111.88;;;13.22;42.74
40838;BME280;29632;49.168;9.848;2023-04-08T06:37:12;97109.13;;;13.23;42.99
40838;BME280;29632;49.168;9.848;2023-04-08T06:39:38;97115.69;;;13.28;42.54
40838;BME280;29632;49.168;9.848;2023-04-08T06:42:04;97115.69;;;13.28;42.73
40838;BME280;29632;49.168;9.848;2023-04-08T06:44:30;97116.53;;;13.28;42.70
40838;BME280;29632;49.168;9.848;2023-04-08T06:46:56;97118.44;;;13.26;42.53
40838;BME280;29632;49.168;9.848;2023-04-08T06:49:22;97123.00;;;13.24;42.96
40838;BME280;29632;49.168;9.848;2023-04-08T06:51:47;97115.16;;;13.24;42.69
40838;BME280;29632;49.168;9.848;2023-04-08T06:54:13;97121.06;;;13.26;42.88
40838;BME280;29632;49.168;9.848;2023-04-08T06:56:39;97124.22;;;13.30;42.65
40838;BME280;29632;49.168;9.848;2023-04-08T06:59:04;97122.41;;;13.30;42.96
40838;BME280;29632;49.168;9.848;2023-04-08T07:01:30;97126.97;;;13.28;42.56
40838;BME280;29632;49.168;9.848;2023-04-08T07:03:57;97132.50;;;13.25;43.10
40838;BME280;29632;49.168;9.848;2023-04-08T07:06:22;97129.22;;;13.23;42.81
40838;BME280;29632;49.168;9.848;2023-04-08T07:08:48;97134.75;;;13.20;43.00
40838;BME280;29632;49.168;9.848;2023-04-08T07:11:13;97137.66;;;13.17;42.86
40838;BME280;29632;49.168;9.848;2023-04-08T07:13:40;97132.91;;;13.12;43.38
40838;BME280;29632;49.168;9.848;2023-04-08T07:16:05;97147.91;;;13.10;43.28
40838;BME280;29632;49.168;9.848;2023-04-08T07:18:31;97147.91;;;13.10;43.50
40838;BME280;29632;49.168;9.848;2023-04-08T07:20:57;97138.16;;;13.12;43.29
40838;BME280;29632;49.168;9.848;2023-04-08T07:23:23;97140.06;;;13.10;43.39
40838;BME280;29632;49.168;9.848;2023-04-08T07:25:48;97141.72;;;13.11;42.94
40838;BME280;29632;49.168;9.848;2023-04-08T07:28:14;97146.94;;;13.11;43.26
40838;BME280;29632;49.168;9.848;2023-04-08T07:30:40;97154.94;;;13.10;42.90
40838;BME280;29632;49.168;9.848;2023-04-08T07:33:05;97152.19;;;13.11;43.28
40838;BME280;29632;49.168;9.848;2023-04-08T07:35:32;97158.75;;;13.15;43.33
40838;BME280;29632;49.168;9.848;2023-04-08T07:37:57;97160.75;;;13.21;43.24
40838;BME280;29632;49.168;9.848;2023-04-08T07:40:23;97159.03;;;13.30;42.87
40838;BME280;29632;49.168;9.848;2023-04-08T07:42:49;97155.97;;;13.35;42.79
40838;BME280;29632;49.168;9.848;2023-04-08T07:45:16;97155.69;;;13.38;43.01
40838;BME280;29632;49.168;9.848;2023-04-08T07:47:43;97162.09;;;13.44;42.57
40838;BME280;29632;49.168;9.848;2023-04-08T07:50:08;97168.81;;;13.46;42.67
40838;BME280;29632;49.168;9.848;2023-04-08T07:52:34;97161.66;;;13.48;42.96
40838;BME280;29632;49.168;9.848;2023-04-08T07:55:00;97166.59;;;13.51;42.96
40838;BME280;29632;49.168;9.848;2023-04-08T07:57:26;97164.31;;;13.56;42.37
40838;BME280;29632;49.168;9.848;2023-04-08T07:59:52;97160.13;;;13.64;42.54
40838;BME280;29632;49.168;9.848;2023-04-08T08:02:17;97168.84;;;13.72;42.63
40838;BME280;29632;49.168;9.848;2023-04-08T08:04:43;97176.06;;;13.78;42.03
40838;BME280;29632;49.168;9.848;2023-04-08T08:07:08;97179.03;;;13.84;42.43
40838;BME280;29632;49.168;9.848;2023-04-08T08:09:34;97179.41;;;13.89;42.24
40838;BME280;29632;49.168;9.848;2023-04-08T08:12:00;97183.53;;;13.91;41.83
40838;BME280;29632;49.168;9.848;2023-04-08T08:14:25;97179.47;;;13.97;42.03
40838;BME280;29632;49.168;9.848;2023-04-08T08:16:52;97180.63;;;14.03;41.99
40838;BME280;29632;49.168;9.848;2023-04-08T08:19:19;97188.69;;;14.09;41.72
40838;BME280;29632;49.168;9.848;2023-04-08T08:21:45;97186.25;;;14.16;41.89
40838;BME280;29632;49.168;9.848;2023-04-08T08:24:11;97189.25;;;14.21;41.69
40838;BME280;29632;49.168;9.848;2023-04-08T08:26:36;97197.59;;;14.25;41.41
40838;BME280;29632;49.168;9.848;2023-04-08T08:29:02;97188.59;;;14.27;41.55
40838;BME280;29632;49.168;9.848;2023-04-08T08:31:28;97194.19;;;14.32;41.49
40838;BME280;29632;49.168;9.848;2023-04-08T08:33:54;97202.41;;;14.38;41.56
40838;BME280;29632;49.168;9.848;2023-04-08T08:36:19;97202.75;;;14.43;41.48
40838;BME280;29632;49.168;9.848;2023-04-08T08:38:46;97205.72;;;14.48;41.52
40838;BME280;29632;49.168;9.848;2023-04-08T08:41:11;97200.00;;;14.52;41.17
40838;BME280;29632;49.168;9.848;2023-04-08T08:43:37;97197.91;;;14.56;41.30
40838;BME280;29632;49.168;9.848;2023-04-08T08:46:02;97199.09;;;14.62;41.23
40838;BME280;29632;49.168;9.848;2023-04-08T08:48:28;97212.53;;;14.67;41.36
40838;BME280;29632;49.168;9.848;2023-04-08T08:50:56;97205.31;;;14.69;41.18
40838;BME280;29632;49.168;9.848;2023-04-08T08:53:28;97199.78;;;14.72;41.41
40838;BME280;29632;49.168;9.848;2023-04-08T08:55:53;97200.28;;;14.76;41.10
40838;BME280;29632;49.168;9.848;2023-04-08T08:58:19;97195.53;;;14.79;41.39
40838;BME280;29632;49.168;9.848;2023-04-08T09:00:44;97201.28;;;14.83;41.09
40838;BME280;29632;49.168;9.848;2023-04-08T09:03:24;97204.38;;;14.86;41.32
40838;BME280;29632;49.168;9.848;2023-04-08T09:05:56;97208.50;;;14.89;41.24
40838;BME280;29632;49.168;9.848;2023-04-08T09:08:33;97204.88;;;14.90;41.28
40838;BME280;29632;49.168;9.848;2023-04-08T09:11:32;97215.22;;;14.91;41.47
40838;BME280;29632;49.168;9.848;2023-04-08T09:13:57;97218.66;;;14.92;41.05
40838;BME280;29632;49.168;9.848;2023-04-08T09:16:23;97222.13;;;14.93;40.85
40838;BME280;29632;49.168;9.848;2023-04-08T09:18:49;97224.59;;;14.94;41.31
40838;BME280;29632;49.168;9.848;2023-04-08T09:21:16;97229.00;;;14.94;41.09
40838;BME280;29632;49.168;9.848;2023-04-08T09:23:51;97222.13;;;14.93;41.28
40838;BME280;29632;49.168;9.848;2023-04-08T09:31:26;97236.34;;;14.90;41.35
40838;BME280;29632;49.168;9.848;2023-04-08T09:33:57;97231.97;;;14.90;41.20
40838;BME280;29632;49.168;9.848;2023-04-08T09:36:23;97233.72;;;14.90;41.22
40838;BME280;29632;49.168;9.848;2023-04-08T09:38:50;97235.38;;;14.91;41.58
40838;BME280;29632;49.168;9.848;2023-04-08T09:41:17;97244.88;;;14.92;41.19
40838;BME280;29632;49.168;9.848;2023-04-08T09:43:55;97231.78;;;14.92;41.38
40838;BME280;29632;49.168;9.848;2023-04-08T09:49:17;97235.84;;;14.86;41.36
40838;BME280;29632;49.168;9.848;2023-04-08T09:54:19;97234.38;;;14.84;41.10
40838;BME280;29632;49.168;9.848;2023-04-08T09:57:04;97238.78;;;14.83;41.13
40838;BME280;29632;49.168;9.848;2023-04-08T09:59:34;97240.44;;;14.84;41.11
40838;BME280;29632;49.168;9.848;2023-04-08T10:02:06;97243.88;;;14.85;41.24
40838;BME280;29632;49.168;9.848;2023-04-08T10:04:34;97246.50;;;14.85;41.31
40838;BME280;29632;49.168;9.848;2023-04-08T10:07:03;97250.28;;;14.82;41.13
40838;BME280;29632;49.168;9.848;2023-04-08T10:09:29;97241.59;;;14.82;41.16
40838;BME280;29632;49.168;9.848;2023-04-08T10:11:55;97240.41;;;14.76;41.04
40838;BME280;29632;49.168;9.848;2023-04-08T10:14:21;97247.63;;;14.74;41.38
40838;BME280;29632;49.168;9.848;2023-04-08T10:16:46;97241.72;;;14.72;41.22
40838;BME280;29632;49.168;9.848;2023-04-08T10:19:35;97239.09;;;14.72;41.69
40838;BME280;29632;49.168;9.848;2023-04-08T10:22:03;97238.28;;;14.71;41.74
40838;BME280;29632;49.168;9.848;2023-04-08T10:24:28;97236.63;;;14.70;41.24
40838;BME280;29632;49.168;9.848;2023-04-08T10:26:54;97240.22;;;14.69;41.11
40838;BME280;29632;49.168;9.848;2023-04-08T10:31:48;97235.81;;;14.70;41.10
40838;BME280;29632;49.168;9.848;2023-04-08T10:34:24;97239.25;;;14.70;41.40
40838;BME280;29632;49.168;9.848;2023-04-08T10:36:51;97234.81;;;14.71;41.43
40838;BME280;29632;49.168;9.848;2023-04-08T10:39:17;97230.41;;;14.71;41.24
40838;BME280;29632;49.168;9.848;2023-04-08T10:41:48;97238.13;;;14.73;41.18
40838;BME280;29632;49.168;9.848;2023-04-08T10:44:18;97238.94;;;14.73;41.12
40838;BME280;29632;49.168;9.848;2023-04-08T10:46:48;97240.91;;;14.71;41.36
40838;BME280;29632;49.168;9.848;2023-04-08T10:49:15;97247.44;;;14.67;41.31
40838;BME280;29632;49.168;9.848;2023-04-08T10:51:42;97247.75;;;14.64;41.33
40838;BME280;29632;49.168;9.848;2023-04-08T10:54:10;97245.97;;;14.65;41.53
40838;BME280;29632;49.168;9.848;2023-04-08T10:56:49;97249.25;;;14.67;41.31
40838;BME280;29632;49.168;9.848;2023-04-08T10:59:17;97249.38;;;14.65;41.15
40838;BME280;29632;49.168;9.848;2023-04-08T11:01:51;97248.28;;;14.68;41.51
40838;BME280;29632;49.168;9.848;2023-04-08T11:04:17;97241.22;;;14.68;41.19
40838;BME280;29632;49.168;9.848;2023-04-08T11:06:44;97248.09;;;14.69;41.32
40838;BME280;29632;49.168;9.848;2023-04-08T11:09:11;97240.91;;;14.71;41.13
40838;BME280;29632;49.168;9.848;2023-04-08T11:11:37;97246.31;;;14.70;41.02
40838;BME280;29632;49.168;9.848;2023-04-08T11:14:03;97245.47;;;14.69;41.28
40838;BME280;29632;49.168;9.848;2023-04-08T11:16:30;97239.56;;;14.67;41.33
40838;BME280;29632;49.168;9.848;2023-04-08T11:18:57;97233.81;;;14.64;41.08
40838;BME280;29632;49.168;9.848;2023-04-08T11:21:23;97237.94;;;14.66;41.23
40838;BME280;29632;49.168;9.848;2023-04-08T11:23:50;97241.72;;;14.72;41.15
40838;BME280;29632;49.168;9.848;2023-04-08T11:26:18;97237.78;;;14.76;40.82
40838;BME280;29632;49.168;9.848;2023-04-08T11:28:44;97235.50;;;14.81;41.01
40838;BME280;29632;49.168;9.848;2023-04-08T11:31:11;97240.13;;;14.87;41.31
40838;BME280;29632;49.168;9.848;2023-04-08T11:33:42;97242.09;;;14.94;40.88
40838;BME280;29632;49.168;9.848;2023-04-08T11:36:08;97244.41;;;14.97;40.86
40838;BME280;29632;49.168;9.848;2023-04-08T11:38:38;97244.09;;;15.00;40.87
40838;BME280;29632;49.168;9.848;2023-04-08T11:41:05;97249.84;;;15.03;41.06
40838;BME280;29632;49.168;9.848;2023-04-08T11:43:31;97249.38;;;15.08;40.89
40838;BME280;29632;49.168;9.848;2023-04-08T11:45:56;97236.56;;;15.05;40.96
40838;BME280;29632;49.168;9.848;2023-04-08T11:48:23;97241.66;;;15.06;40.93
40838;BME280;29632;49.168;9.848;2023-04-08T11:51:01;97234.28;;;15.10;40.90
40838;BME280;29632;49.168;9.848;2023-04-08T11:53:27;97232.31;;;15.12;40.89
40838;BME280;29632;49.168;9.848;2023-04-08T11:55:54;97235.44;;;15.16;40.69
40838;BME280;29632;49.168;9.848;2023-04-08T11:58:20;97230.69;;;15.19;40.53
40838;BME280;29632;49.168;9.848;2023-04-08T12:00:46;97233.00;;;15.22;40.94
40838;BME280;29632;49.168;9.848;2023-04-08T12:03:11;97227.91;;;15.21;40.86
40838;BME280;29632;49.168;9.848;2023-04-08T12:05:38;97225.28;;;15.21;40.71
40838;BME280;29632;49.168;9.848;2023-04-08T12:08:03;97228.22;;;15.18;40.98
40838;BME280;29632;49.168;9.848;2023-04-08T12:10:29;97223.78;;;15.18;40.89
40838;BME280;29632;49.168;9.848;2023-04-08T12:12:55;97232.00;;;15.23;41.07
40838;BME280;29632;49.168;9.848;2023-04-08T12:15:20;97232.81;;;15.32;40.81
40838;BME280;29632;49.168;9.848;2023-04-08T12:17:46;97233.81;;;15.39;40.60
40838;BME280;29632;49.168;9.848;2023-04-08T12:20:12;97238.25;;;15.39;40.57
40838;BME280;29632;49.168;9.848;2023-04-08T12:22:38;97235.78;;;15.37;40.85
40838;BME280;29632;49.168;9.848;2023-04-08T12:25:04;97238.56;;;15.36;40.77
40838;BME280;29632;49.168;9.848;2023-04-08T12:27:31;97241.19;;;15.36;40.96
40838;BME280;29632;49.168;9.848;2023-04-08T12:30:00;97238.41;;;15.37;41.02
40838;BME280;29632;49.168;9.848;2023-04-08T12:32:27;97237.59;;;15.37;40.92
40838;BME280;29632;49.168;9.848;2023-04-08T12:34:53;97242.53;;;15.40;41.06
40838;BME280;29632;49.168;9.848;2023-04-08T12:37:18;97239.59;;;15.43;41.12
40838;BME280;29632;49.168;9.848;2023-04-08T12:39:45;97235.78;;;15.45;41.00
40838;BME280;29632;49.168;9.848;2023-04-08T12:42:12;97238.09;;;15.48;40.79
40838;BME280;29632;49.168;9.848;2023-04-08T12:44:38;97236.13;;;15.51;40.67
40838;BME280;29632;49.168;9.848;2023-04-08T12:47:03;97242.34;;;15.49;40.83
40838;BME280;29632;49.168;9.848;2023-04-08T12:49:29;97240.56;;;15.50;40.75
40838;BME280;29632;49.168;9.848;2023-04-08T12:51:55;97238.59;;;15.52;41.11
40838;BME280;29632;49.168;9.848;2023-04-08T12:54:20;97240.91;;;15.55;40.91
40838;BME280;29632;49.168;9.848;2023-04-08T12:56:46;97238.91;;;15.57;41.02
40838;BME280;29632;49.168;9.848;2023-04-08T12:59:13;97241.22;;;15.60;40.97
40838;BME280;29632;49.168;9.848;2023-04-08T13:01:39;97237.59;;;15.61;40.94
40838;BME280;29632;49.168;9.848;2023-04-08T13:04:04;97243.66;;;15.62;40.71
40838;BME280;29632;49.168;9.848;2023-04-08T13:06:30;97239.91;;;15.64;40.80
40838;BME280;29632;49.168;9.848;2023-04-08T13:08:56;97241.53;;;15.65;40.91
40838;BME280;29632;49.168;9.848;2023-04-08T13:11:22;97244.16;;;15.65;40.83
40838;BME280;29632;49.168;9.848;2023-04-08T13:13:47;97249.91;;;15.69;40.71
40838;BME280;29632;49.168;9.848;2023-04-08T13:16:13;97249.72;;;15.71;40.55